Airfield :
LOGIN :

Register | Disclaimer

   EN    FR    IT 

 










Legend :    VFR   Marginal VFR   IFR   Intensive IFR   Very Intensive IFR
Visi :
Ceiling :
>= 8 km
>= 3000ft
5 to 8 km
1000 to 3000 ft
1500m to 5 km
500 to 1000 ft
800 to 1500m
200 to 500 ft
< 800m
< 200 ft
Symbols :   Thunderstorms  Fog  Heavy snow  Heavy precipitations  Wind > 20 kt
SIGMETs :     Misc.  Thunderstorms  Icing  Turbulence  Mountain Waves  Volcanic Ashes






- Airport Elevation : 70 ft
- IATA code : LMP


LICD - Lampedusa

CURRENT METAR :
  • 250220Z AUTO 04017KT 9999 // NCD 23/20 Q1009

EXPIRED METARs :
  • 250150Z AUTO 03019KT 9999 // NCD 23/19 Q1009
  • 250120Z AUTO 03018KT 9999 // NCD 23/19 Q1009
  • 250050Z AUTO 02017KT 9999 // NCD 23/19 Q1009
  • 250020Z AUTO 03018KT 9999 // NCD 23/19 Q1010
  • 242350Z AUTO 02018KT 9999 // NCD 23/19 Q1010
  • 242320Z AUTO 02017KT 9999 // NCD 23/18 Q1010
  • 242250Z AUTO 02017KT 9999 // FEW170/// 23/19 Q1010
  • 242150Z AUTO 01019KT 9999 // FEW150/// 23/19 Q1010

TAF TAF LICD
Valid from the 25 at 00:00 until the 26 at 00:00 UTC


242300Z 2500/2524 02014KT 9999 SCT030
TEMPO 2500/2506 4000 TSRA
TEMPO 2512/2518 02018G30KT



MET'MAP, your aeronautical weather chart ! - Copyright ORBIFLY December 2007 - Disclaimer

ORBIFLY MET'MAP TEAM :

Programming & Development : Alexandra Zaïnal
Original concept : Baudouin d'Aumeries
Technical & hardware support : Manuel Goepfert
Assistance : Marc-Olivier Méhu




SOURCES & CREDITS :

   NOAA